sensor_id;sensor_type;location;lat;lon;timestamp;pressure;altitude;pressure_sealevel;temperature;humidity
71567;BME280;59403;47.456;19.120;2022-10-31T00:01:46;101105.09;;;11.92;100.00
71567;BME280;59403;47.456;19.120;2022-10-31T00:04:13;101103.56;;;11.89;100.00
71567;BME280;59403;47.456;19.120;2022-10-31T00:06:40;101114.47;;;11.86;100.00
71567;BME280;59403;47.456;19.120;2022-10-31T00:09:09;101108.03;;;11.89;100.00
71567;BME280;59403;47.456;19.120;2022-10-31T00:11:37;101103.72;;;11.88;100.00
71567;BME280;59403;47.456;19.120;2022-10-31T00:14:04;101100.06;;;11.89;100.00
71567;BME280;59403;47.456;19.120;2022-10-31T00:16:31;101092.09;;;11.89;100.00
71567;BME280;59403;47.456;19.120;2022-10-31T00:18:59;101096.72;;;11.87;100.00
71567;BME280;59403;47.456;19.120;2022-10-31T00:21:27;101093.41;;;11.85;100.00
71567;BME280;59403;47.456;19.120;2022-10-31T00:23:54;101099.53;;;11.85;100.00
71567;BME280;59403;47.456;19.120;2022-10-31T00:26:23;101101.22;;;11.86;100.00
71567;BME280;59403;47.456;19.120;2022-10-31T00:28:50;101104.13;;;11.83;100.00
71567;BME280;59403;47.456;19.120;2022-10-31T00:31:17;101101.78;;;11.80;100.00
71567;BME280;59403;47.456;19.120;2022-10-31T00:33:44;101096.31;;;11.82;100.00
71567;BME280;59403;47.456;19.120;2022-10-31T00:36:12;101096.62;;;11.79;100.00
71567;BME280;59403;47.456;19.120;2022-10-31T00:38:40;101096.25;;;11.74;100.00
71567;BME280;59403;47.456;19.120;2022-10-31T00:41:08;101107.00;;;11.72;100.00
71567;BME280;59403;47.456;19.120;2022-10-31T00:43:36;101094.44;;;11.74;100.00
71567;BME280;59403;47.456;19.120;2022-10-31T00:46:03;101095.53;;;11.72;100.00
71567;BME280;59403;47.456;19.120;2022-10-31T00:48:30;101093.50;;;11.66;100.00
71567;BME280;59403;47.456;19.120;2022-10-31T00:50:57;101093.34;;;11.67;100.00
71567;BME280;59403;47.456;19.120;2022-10-31T00:53:24;101088.56;;;11.61;100.00
71567;BME280;59403;47.456;19.120;2022-10-31T00:55:51;101088.56;;;11.61;100.00
71567;BME280;59403;47.456;19.120;2022-10-31T00:58:18;101082.72;;;11.58;100.00
71567;BME280;59403;47.456;19.120;2022-10-31T01:00:48;101083.19;;;11.53;100.00
71567;BME280;59403;47.456;19.120;2022-10-31T01:03:20;101090.16;;;11.54;100.00
71567;BME280;59403;47.456;19.120;2022-10-31T01:05:55;101089.34;;;11.54;100.00
71567;BME280;59403;47.456;19.120;2022-10-31T01:08:22;101089.59;;;11.51;100.00
71567;BME280;59403;47.456;19.120;2022-10-31T01:11:01;101082.34;;;11.53;100.00
71567;BME280;59403;47.456;19.120;2022-10-31T01:13:28;101084.56;;;11.57;100.00
71567;BME280;59403;47.456;19.120;2022-10-31T01:15:58;101090.28;;;11.53;100.00
71567;BME280;59403;47.456;19.120;2022-10-31T01:18:25;101082.34;;;11.53;100.00
71567;BME280;59403;47.456;19.120;2022-10-31T01:21:00;101082.62;;;11.50;100.00
71567;BME280;59403;47.456;19.120;2022-10-31T01:23:28;101074.69;;;11.50;100.00
71567;BME280;59403;47.456;19.120;2022-10-31T01:26:06;101080.13;;;11.48;100.00
71567;BME280;59403;47.456;19.120;2022-10-31T01:28:34;101083.19;;;11.53;100.00
71567;BME280;59403;47.456;19.120;2022-10-31T01:31:05;101080.69;;;11.52;100.00
71567;BME280;59403;47.456;19.120;2022-10-31T01:33:32;101068.38;;;11.51;100.00
71567;BME280;59403;47.456;19.120;2022-10-31T01:35:59;101068.97;;;11.44;100.00
71567;BME280;59403;47.456;19.120;2022-10-31T01:38:26;101073.69;;;11.51;100.00
71567;BME280;59403;47.456;19.120;2022-10-31T01:40:53;101063.91;;;11.51;100.00
71567;BME280;59403;47.456;19.120;2022-10-31T01:43:20;101062.53;;;11.47;100.00
71567;BME280;59403;47.456;19.120;2022-10-31T01:45:51;101067.97;;;11.45;100.00
71567;BME280;59403;47.456;19.120;2022-10-31T01:48:24;101067.84;;;11.47;100.00
71567;BME280;59403;47.456;19.120;2022-10-31T01:50:54;101065.88;;;11.49;100.00
71567;BME280;59403;47.456;19.120;2022-10-31T01:53:21;101066.91;;;11.38;100.00
71567;BME280;59403;47.456;19.120;2022-10-31T01:55:49;101071.09;;;11.41;100.00
71567;BME280;59403;47.456;19.120;2022-10-31T01:58:20;101064.25;;;11.38;100.00
71567;BME280;59403;47.456;19.120;2022-10-31T02:04:13;101071.34;;;11.38;100.00
71567;BME280;59403;47.456;19.120;2022-10-31T02:06:49;101062.97;;;11.42;100.00
71567;BME280;59403;47.456;19.120;2022-10-31T02:09:20;101062.44;;;11.39;100.00
71567;BME280;59403;47.456;19.120;2022-10-31T02:11:49;101056.00;;;11.41;100.00
71567;BME280;59403;47.456;19.120;2022-10-31T02:14:18;101062.44;;;11.39;100.00
71567;BME280;59403;47.456;19.120;2022-10-31T02:16:45;101065.62;;;11.42;100.00
71567;BME280;59403;47.456;19.120;2022-10-31T02:19:18;101062.00;;;11.43;100.00
71567;BME280;59403;47.456;19.120;2022-10-31T02:21:52;101057.53;;;11.44;100.00
71567;BME280;59403;47.456;19.120;2022-10-31T02:24:38;101057.37;;;11.45;100.00
71567;BME280;59403;47.456;19.120;2022-10-31T02:30:05;101057.91;;;11.49;100.00
71567;BME280;59403;47.456;19.120;2022-10-31T02:32:46;101058.75;;;11.50;100.00
71567;BME280;59403;47.456;19.120;2022-10-31T02:35:27;101050.81;;;11.50;100.00
71567;BME280;59403;47.456;19.120;2022-10-31T02:38:05;101055.41;;;11.48;100.00
71567;BME280;59403;47.456;19.120;2022-10-31T02:40:38;101057.37;;;11.45;100.00
71567;BME280;59403;47.456;19.120;2022-10-31T02:43:09;101056.00;;;11.41;100.00
71567;BME280;59403;47.456;19.120;2022-10-31T02:45:41;101065.34;;;11.45;100.00
71567;BME280;59403;47.456;19.120;2022-10-31T02:48:16;101061.84;;;11.45;100.00
71567;BME280;59403;47.456;19.120;2022-10-31T02:50:49;101066.47;;;11.43;100.00
71567;BME280;59403;47.456;19.120;2022-10-31T02:53:19;101063.53;;;11.46;100.00
71567;BME280;59403;47.456;19.120;2022-10-31T02:55:58;101069.69;;;11.47;100.00
71567;BME280;59403;47.456;19.120;2022-10-31T02:58:27;101071.78;;;11.43;100.00
71567;BME280;59403;47.456;19.120;2022-10-31T03:04:16;101069.25;;;11.41;100.00
71567;BME280;59403;47.456;19.120;2022-10-31T03:06:56;101075.41;;;11.42;100.00
71567;BME280;59403;47.456;19.120;2022-10-31T03:09:31;101078.03;;;11.42;100.00
71567;BME280;59403;47.456;19.120;2022-10-31T03:12:04;101077.50;;;11.38;100.00
71567;BME280;59403;47.456;19.120;2022-10-31T03:14:40;101077.50;;;11.38;100.00
71567;BME280;59403;47.456;19.120;2022-10-31T03:17:14;101076.53;;;11.39;100.00
71567;BME280;59403;47.456;19.120;2022-10-31T03:19:48;101077.22;;;11.41;100.00
71567;BME280;59403;47.456;19.120;2022-10-31T03:22:17;101075.53;;;11.40;100.00
71567;BME280;59403;47.456;19.120;2022-10-31T03:24:46;101082.50;;;11.41;100.00
71567;BME280;59403;47.456;19.120;2022-10-31T03:27:18;101081.97;;;11.38;100.00
71567;BME280;59403;47.456;19.120;2022-10-31T03:29:47;101082.13;;;11.36;100.00
71567;BME280;59403;47.456;19.120;2022-10-31T03:32:17;101079.06;;;11.31;100.00
71567;BME280;59403;47.456;19.120;2022-10-31T03:34:48;101079.59;;;11.35;100.00
71567;BME280;59403;47.456;19.120;2022-10-31T03:37:18;101082.97;;;11.37;100.00
71567;BME280;59403;47.456;19.120;2022-10-31T03:39:48;101089.25;;;11.36;100.00
71567;BME280;59403;47.456;19.120;2022-10-31T03:42:18;101091.22;;;11.34;100.00
71567;BME280;59403;47.456;19.120;2022-10-31T03:44:49;101086.06;;;11.32;100.00
71567;BME280;59403;47.456;19.120;2022-10-31T03:47:19;101092.47;;;11.30;100.00
71567;BME280;59403;47.456;19.120;2022-10-31T03:49:47;101092.62;;;11.28;100.00
71567;BME280;59403;47.456;19.120;2022-10-31T03:52:20;101095.56;;;11.25;100.00
71567;BME280;59403;47.456;19.120;2022-10-31T03:54:54;101093.88;;;11.24;100.00
71567;BME280;59403;47.456;19.120;2022-10-31T03:57:26;101093.72;;;11.26;100.00
71567;BME280;59403;47.456;19.120;2022-10-31T03:59:58;101093.72;;;11.26;100.00
71567;BME280;59403;47.456;19.120;2022-10-31T04:02:30;101092.91;;;11.25;100.00
71567;BME280;59403;47.456;19.120;2022-10-31T04:04:59;101092.75;;;11.27;100.00
71567;BME280;59403;47.456;19.120;2022-10-31T04:07:31;101092.91;;;11.25;100.00
71567;BME280;59403;47.456;19.120;2022-10-31T04:10:02;101098.47;;;11.22;100.00
71567;BME280;59403;47.456;19.120;2022-10-31T04:12:31;101095.16;;;11.20;100.00
71567;BME280;59403;47.456;19.120;2022-10-31T04:15:00;101095.44;;;11.17;100.00
71567;BME280;59403;47.456;19.120;2022-10-31T04:17:32;101100.59;;;11.19;100.00
71567;BME280;59403;47.456;19.120;2022-10-31T04:20:02;101100.72;;;11.17;100.00
71567;BME280;59403;47.456;19.120;2022-10-31T04:22:29;101103.38;;;11.17;100.00
71567;BME280;59403;47.456;19.120;2022-10-31T04:24:56;101105.06;;;11.18;100.00
71567;BME280;59403;47.456;19.120;2022-10-31T04:27:23;101112.03;;;11.19;100.00
71567;BME280;59403;47.456;19.120;2022-10-31T04:29:50;101103.69;;;11.14;100.00
71567;BME280;59403;47.456;19.120;2022-10-31T04:32:17;101103.38;;;11.17;100.00
71567;BME280;59403;47.456;19.120;2022-10-31T04:34:43;101101.44;;;11.19;100.00
71567;BME280;59403;47.456;19.120;2022-10-31T04:37:11;101108.84;;;11.16;100.00
71567;BME280;59403;47.456;19.120;2022-10-31T04:39:38;101113.44;;;11.14;100.00
71567;BME280;59403;47.456;19.120;2022-10-31T04:42:05;101113.84;;;11.19;100.00
71567;BME280;59403;47.456;19.120;2022-10-31T04:44:32;101117.34;;;11.19;100.00
71567;BME280;59403;47.456;19.120;2022-10-31T04:46:59;101115.81;;;11.17;100.00
71567;BME280;59403;47.456;19.120;2022-10-31T04:49:26;101124.34;;;11.20;100.00
71567;BME280;59403;47.456;19.120;2022-10-31T04:51:52;101116.62;;;11.17;100.00
71567;BME280;59403;47.456;19.120;2022-10-31T04:54:21;101114.13;;;11.16;100.00
71567;BME280;59403;47.456;19.120;2022-10-31T04:56:47;101115.69;;;11.18;100.00
71567;BME280;59403;47.456;19.120;2022-10-31T04:59:14;101120.84;;;11.20;100.00
71567;BME280;59403;47.456;19.120;2022-10-31T05:01:41;101122.94;;;11.16;100.00
71567;BME280;59403;47.456;19.120;2022-10-31T05:04:10;101116.78;;;11.16;100.00
71567;BME280;59403;47.456;19.120;2022-10-31T05:06:37;101122.78;;;11.18;100.00
71567;BME280;59403;47.456;19.120;2022-10-31T05:09:04;101119.16;;;11.19;100.00
71567;BME280;59403;47.456;19.120;2022-10-31T05:11:33;101113.72;;;11.20;100.00
71567;BME280;59403;47.456;19.120;2022-10-31T05:13:59;101124.19;;;11.22;100.00
71567;BME280;59403;47.456;19.120;2022-10-31T05:16:26;101129.09;;;11.17;100.00
71567;BME280;59403;47.456;19.120;2022-10-31T05:18:54;101125.44;;;11.18;100.00
71567;BME280;59403;47.456;19.120;2022-10-31T05:21:21;101120.12;;;11.18;100.00
71567;BME280;59403;47.456;19.120;2022-10-31T05:23:48;101122.78;;;11.18;100.00
71567;BME280;59403;47.456;19.120;2022-10-31T05:26:14;101120.00;;;11.19;100.00
71567;BME280;59403;47.456;19.120;2022-10-31T05:28:43;101125.00;;;11.22;100.00
71567;BME280;59403;47.456;19.120;2022-10-31T05:31:09;101125.84;;;11.23;100.00
71567;BME280;59403;47.456;19.120;2022-10-31T05:33:36;101119.84;;;11.21;100.00
71567;BME280;59403;47.456;19.120;2022-10-31T05:36:04;101125.84;;;11.23;100.00
71567;BME280;59403;47.456;19.120;2022-10-31T05:38:31;101129.19;;;11.25;100.00
71567;BME280;59403;47.456;19.120;2022-10-31T05:40:58;101133.50;;;11.26;100.00
71567;BME280;59403;47.456;19.120;2022-10-31T05:43:26;101120.12;;;11.27;100.00
71567;BME280;59403;47.456;19.120;2022-10-31T05:45:55;101135.88;;;11.29;100.00
71567;BME280;59403;47.456;19.120;2022-10-31T05:48:22;101131.41;;;11.29;100.00
71567;BME280;59403;47.456;19.120;2022-10-31T05:50:49;101132.53;;;11.27;100.00
71567;BME280;59403;47.456;19.120;2022-10-31T05:53:16;101144.09;;;11.26;100.00
71567;BME280;59403;47.456;19.120;2022-10-31T05:55:43;101139.25;;;11.21;100.00
71567;BME280;59403;47.456;19.120;2022-10-31T05:58:10;101150.09;;;11.28;100.00
71567;BME280;59403;47.456;19.120;2022-10-31T06:00:37;101141.87;;;11.31;100.00
71567;BME280;59403;47.456;19.120;2022-10-31T06:03:07;101134.66;;;11.23;100.00
71567;BME280;59403;47.456;19.120;2022-10-31T06:05:34;101145.09;;;11.25;100.00
71567;BME280;59403;47.456;19.120;2022-10-31T06:08:01;101141.34;;;11.27;100.00
71567;BME280;59403;47.456;19.120;2022-10-31T06:10:28;101143.56;;;11.32;100.00
71567;BME280;59403;47.456;19.120;2022-10-31T06:12:55;101131.84;;;11.34;100.00
71567;BME280;59403;47.456;19.120;2022-10-31T06:15:22;101131.00;;;11.34;100.00
71567;BME280;59403;47.456;19.120;2022-10-31T06:17:58;101137.00;;;11.36;100.00
71567;BME280;59403;47.456;19.120;2022-10-31T06:20:26;101148.25;;;11.38;100.00
71567;BME280;59403;47.456;19.120;2022-10-31T06:22:53;101140.19;;;11.39;100.00
71567;BME280;59403;47.456;19.120;2022-10-31T06:25:20;101145.34;;;11.41;100.00
71567;BME280;59403;47.456;19.120;2022-10-31T06:27:47;101141.84;;;11.40;100.00
71567;BME280;59403;47.456;19.120;2022-10-31T06:30:14;101133.44;;;11.45;100.00
71567;BME280;59403;47.456;19.120;2022-10-31T06:32:42;101132.78;;;11.43;100.00
71567;BME280;59403;47.456;19.120;2022-10-31T06:35:09;101134.16;;;11.47;100.00
71567;BME280;59403;47.456;19.120;2022-10-31T06:37:38;101137.63;;;11.48;100.00
71567;BME280;59403;47.456;19.120;2022-10-31T06:40:06;101145.59;;;11.48;100.00
71567;BME280;59403;47.456;19.120;2022-10-31T06:42:33;101145.59;;;11.48;100.00
71567;BME280;59403;47.456;19.120;2022-10-31T06:45:00;101142.66;;;11.51;100.00
71567;BME280;59403;47.456;19.120;2022-10-31T06:47:26;101140.00;;;11.51;100.00
71567;BME280;59403;47.456;19.120;2022-10-31T06:49:53;101149.91;;;11.58;100.00
71567;BME280;59403;47.456;19.120;2022-10-31T06:52:20;101159.25;;;11.62;100.00
71567;BME280;59403;47.456;19.120;2022-10-31T06:54:50;101166.38;;;11.62;100.00
71567;BME280;59403;47.456;19.120;2022-10-31T06:57:16;101175.03;;;11.54;100.00
71567;BME280;59403;47.456;19.120;2022-10-31T06:59:43;101169.47;;;11.57;100.00
71567;BME280;59403;47.456;19.120;2022-10-31T07:02:11;101174.47;;;11.60;100.00
71567;BME280;59403;47.456;19.120;2022-10-31T07:04:37;101172.94;;;11.58;100.00
71567;BME280;59403;47.456;19.120;2022-10-31T07:07:05;101173.78;;;11.58;100.00
71567;BME280;59403;47.456;19.120;2022-10-31T07:09:32;101172.63;;;11.61;100.00
71567;BME280;59403;47.456;19.120;2022-10-31T07:12:00;101176.81;;;11.63;100.00
71567;BME280;59403;47.456;19.120;2022-10-31T07:14:27;101174.06;;;11.65;100.00
71567;BME280;59403;47.456;19.120;2022-10-31T07:16:54;101183.94;;;11.63;100.00
71567;BME280;59403;47.456;19.120;2022-10-31T07:19:21;101186.34;;;11.66;100.00
71567;BME280;59403;47.456;19.120;2022-10-31T07:21:48;101180.22;;;11.65;100.00
71567;BME280;59403;47.456;19.120;2022-10-31T07:24:14;101185.78;;;11.62;100.00
71567;BME280;59403;47.456;19.120;2022-10-31T07:26:41;101172.09;;;11.67;100.00
71567;BME280;59403;47.456;19.120;2022-10-31T07:29:10;101156.03;;;11.68;100.00
71567;BME280;59403;47.456;19.120;2022-10-31T07:31:37;101177.25;;;11.78;100.00
71567;BME280;59403;47.456;19.120;2022-10-31T07:34:04;101180.44;;;11.81;100.00
71567;BME280;59403;47.456;19.120;2022-10-31T07:36:30;101176.00;;;11.72;100.00
71567;BME280;59403;47.456;19.120;2022-10-31T07:38:57;101171.94;;;11.78;100.00
71567;BME280;59403;47.456;19.120;2022-10-31T07:41:25;101173.44;;;11.80;100.00
71567;BME280;59403;47.456;19.120;2022-10-31T07:43:51;101177.25;;;11.78;100.00
71567;BME280;59403;47.456;19.120;2022-10-31T07:46:21;101181.56;;;11.79;100.00
71567;BME280;59403;47.456;19.120;2022-10-31T07:48:48;101182.69;;;11.76;100.00
71567;BME280;59403;47.456;19.120;2022-10-31T07:51:15;101180.59;;;11.70;100.00
71567;BME280;59403;47.456;19.120;2022-10-31T07:53:42;101184.66;;;11.74;100.00
71567;BME280;59403;47.456;19.120;2022-10-31T07:56:08;101189.69;;;11.68;100.00
71567;BME280;59403;47.456;19.120;2022-10-31T07:58:35;101184.09;;;11.71;100.00
71567;BME280;59403;47.456;19.120;2022-10-31T08:01:02;101189.56;;;11.69;100.00
71567;BME280;59403;47.456;19.120;2022-10-31T08:03:30;101189.41;;;11.71;100.00
71567;BME280;59403;47.456;19.120;2022-10-31T08:05:57;101180.16;;;11.75;100.00
71567;BME280;59403;47.456;19.120;2022-10-31T08:08:24;101184.19;;;11.79;100.00
71567;BME280;59403;47.456;19.120;2022-10-31T08:10:53;101190.22;;;11.81;100.00
71567;BME280;59403;47.456;19.120;2022-10-31T08:13:20;101192.72;;;11.82;100.00
71567;BME280;59403;47.456;19.120;2022-10-31T08:15:47;101195.81;;;11.78;100.00
71567;BME280;59403;47.456;19.120;2022-10-31T08:18:16;101188.28;;;11.73;100.00
71567;BME280;59403;47.456;19.120;2022-10-31T08:20:44;101195.81;;;11.78;100.00
71567;BME280;59403;47.456;19.120;2022-10-31T08:23:12;101199.19;;;11.70;100.00
71567;BME280;59403;47.456;19.120;2022-10-31T08:25:39;101193.97;;;11.78;100.00
71567;BME280;59403;47.456;19.120;2022-10-31T08:28:06;101192.72;;;11.82;100.00
71567;BME280;59403;47.456;19.120;2022-10-31T08:30:35;101194.66;;;11.80;100.00
71567;BME280;59403;47.456;19.120;2022-10-31T08:33:03;101193.00;;;11.79;100.00
71567;BME280;59403;47.456;19.120;2022-10-31T08:35:31;101195.66;;;11.79;100.00
71567;BME280;59403;47.456;19.120;2022-10-31T08:38:00;101195.50;;;11.81;100.00
71567;BME280;59403;47.456;19.120;2022-10-31T08:40:27;101196.06;;;11.75;100.00
71567;BME280;59403;47.456;19.120;2022-10-31T08:42:58;101197.62;;;11.77;100.00
71567;BME280;59403;47.456;19.120;2022-10-31T08:45:26;101192.87;;;11.81;100.00
71567;BME280;59403;47.456;19.120;2022-10-31T08:47:57;101189.66;;;11.77;100.00
71567;BME280;59403;47.456;19.120;2022-10-31T08:50:24;101189.06;;;11.83;100.00
71567;BME280;59403;47.456;19.120;2022-10-31T08:52:51;101196.22;;;11.73;100.00
71567;BME280;59403;47.456;19.120;2022-10-31T08:55:19;101197.78;;;11.76;100.00
71567;BME280;59403;47.456;19.120;2022-10-31T08:57:46;101195.53;;;11.62;100.00
71567;BME280;59403;47.456;19.120;2022-10-31T09:00:13;101203.50;;;11.71;100.00
71567;BME280;59403;47.456;19.120;2022-10-31T09:02:40;101195.97;;;11.76;100.00
71567;BME280;59403;47.456;19.120;2022-10-31T09:05:07;101205.69;;;11.85;100.00
71567;BME280;59403;47.456;19.120;2022-10-31T09:07:34;101208.34;;;11.85;100.00
71567;BME280;59403;47.456;19.120;2022-10-31T09:10:01;101208.88;;;11.89;100.00
71567;BME280;59403;47.456;19.120;2022-10-31T09:12:29;101210.44;;;11.91;100.00
71567;BME280;59403;47.456;19.120;2022-10-31T09:14:56;101210.13;;;11.94;100.00
71567;BME280;59403;47.456;19.120;2022-10-31T09:17:23;101215.44;;;11.94;100.00
71567;BME280;59403;47.456;19.120;2022-10-31T09:19:52;101209.81;;;11.97;100.00
71567;BME280;59403;47.456;19.120;2022-10-31T09:22:18;101215.53;;;12.02;100.00
71567;BME280;59403;47.456;19.120;2022-10-31T09:24:45;101213.88;;;12.01;100.00
71567;BME280;59403;47.456;19.120;2022-10-31T09:27:12;101205.75;;;12.03;100.00
71567;BME280;59403;47.456;19.120;2022-10-31T09:29:40;101211.75;;;12.05;100.00
71567;BME280;59403;47.456;19.120;2022-10-31T09:32:07;101208.72;;;12.00;100.00
71567;BME280;59403;47.456;19.120;2022-10-31T09:34:34;101205.44;;;12.06;100.00
71567;BME280;59403;47.456;19.120;2022-10-31T09:37:01;101209.34;;;12.11;100.00
71567;BME280;59403;47.456;19.120;2022-10-31T09:39:28;101211.19;;;12.11;100.00
71567;BME280;59403;47.456;19.120;2022-10-31T09:42:15;101210.03;;;12.13;100.00
71567;BME280;59403;47.456;19.120;2022-10-31T09:44:51;101216.13;;;11.96;100.00
71567;BME280;59403;47.456;19.120;2022-10-31T09:47:29;101213.31;;;11.98;100.00
71567;BME280;59403;47.456;19.120;2022-10-31T09:50:12;101206.16;;;12.08;100.00
71567;BME280;59403;47.456;19.120;2022-10-31T09:52:44;101222.63;;;12.11;100.00
71567;BME280;59403;47.456;19.120;2022-10-31T09:55:18;101212.69;;;12.13;100.00
71567;BME280;59403;47.456;19.120;2022-10-31T09:57:47;101213.69;;;12.12;100.00
71567;BME280;59403;47.456;19.120;2022-10-31T10:00:19;101214.38;;;12.14;100.00
71567;BME280;59403;47.456;19.120;2022-10-31T10:02:51;101213.00;;;12.10;100.00
71567;BME280;59403;47.456;19.120;2022-10-31T10:05:24;101218.06;;;12.04;100.00
71567;BME280;59403;47.456;19.120;2022-10-31T10:08:00;101214.47;;;11.95;100.00
71567;BME280;59403;47.456;19.120;2022-10-31T10:10:37;101195.09;;;12.12;100.00
71567;BME280;59403;47.456;19.120;2022-10-31T10:13:31;101204.16;;;12.19;100.00
71567;BME280;59403;47.456;19.120;2022-10-31T10:16:12;101205.34;;;12.25;100.00
71567;BME280;59403;47.456;19.120;2022-10-31T10:18:57;101203.25;;;12.28;100.00
71567;BME280;59403;47.456;19.120;2022-10-31T10:21:36;101209.84;;;12.24;100.00
71567;BME280;59403;47.456;19.120;2022-10-31T10:24:25;101205.25;;;12.26;100.00
71567;BME280;59403;47.456;19.120;2022-10-31T10:26:58;101205.25;;;12.26;100.00
71567;BME280;59403;47.456;19.120;2022-10-31T10:29:34;101202.03;;;12.23;100.00
71567;BME280;59403;47.456;19.120;2022-10-31T10:32:09;101205.12;;;12.18;100.00
71567;BME280;59403;47.456;19.120;2022-10-31T10:34:39;101200.66;;;12.19;100.00
71567;BME280;59403;47.456;19.120;2022-10-31T10:37:15;101191.16;;;12.16;100.00
71567;BME280;59403;47.456;19.120;2022-10-31T10:39:52;101191.03;;;12.18;100.00
71567;BME280;59403;47.456;19.120;2022-10-31T10:42:45;101192.69;;;12.19;100.00
71567;BME280;59403;47.456;19.120;2022-10-31T10:45:34;101188.22;;;12.19;100.00
71567;BME280;59403;47.456;19.120;2022-10-31T10:48:29;101202.47;;;12.18;100.00
71567;BME280;59403;47.456;19.120;2022-10-31T10:51:04;101192.69;;;12.19;100.00
71567;BME280;59403;47.456;19.120;2022-10-31T10:53:42;101188.78;;;12.13;100.00
71567;BME280;59403;47.456;19.120;2022-10-31T10:56:36;101187.84;;;12.14;100.00
71567;BME280;59403;47.456;19.120;2022-10-31T10:59:10;101187.38;;;12.19;100.00
71567;BME280;59403;47.456;19.120;2022-10-31T11:01:39;101181.91;;;12.20;100.00
71567;BME280;59403;47.456;19.120;2022-10-31T11:04:23;101181.47;;;12.25;100.00
71567;BME280;59403;47.456;19.120;2022-10-31T11:07:03;101189.31;;;12.26;100.00
71567;BME280;59403;47.456;19.120;2022-10-31T11:09:31;101185.59;;;12.10;100.00
71567;BME280;59403;47.456;19.120;2022-10-31T11:11:58;101182.78;;;12.11;100.00
71567;BME280;59403;47.456;19.120;2022-10-31T11:14:27;101177.88;;;12.16;100.00
71567;BME280;59403;47.456;19.120;2022-10-31T11:17:06;101181.38;;;12.17;100.00
71567;BME280;59403;47.456;19.120;2022-10-31T11:19:36;101178.41;;;12.20;100.00
71567;BME280;59403;47.456;19.120;2022-10-31T11:22:07;101176.44;;;12.22;100.00
71567;BME280;59403;47.456;19.120;2022-10-31T11:24:40;101180.81;;;12.23;100.00
71567;BME280;59403;47.456;19.120;2022-10-31T11:27:14;101180.00;;;12.13;100.00
71567;BME280;59403;47.456;19.120;2022-10-31T11:29:42;101174.41;;;12.16;100.00
71567;BME280;59403;47.456;19.120;2022-10-31T11:32:19;101173.25;;;12.18;100.00
71567;BME280;59403;47.456;19.120;2022-10-31T11:34:49;101172.87;;;12.13;100.00
71567;BME280;59403;47.456;19.120;2022-10-31T11:37:21;101168.25;;;12.15;100.00
71567;BME280;59403;47.456;19.120;2022-10-31T11:39:50;101167.38;;;12.24;100.00
71567;BME280;59403;47.456;19.120;2022-10-31T11:42:21;101162.47;;;12.20;100.00
71567;BME280;59403;47.456;19.120;2022-10-31T11:44:50;101165.25;;;12.28;100.00
71567;BME280;59403;47.456;19.120;2022-10-31T11:47:23;101156.28;;;12.29;100.00
71567;BME280;59403;47.456;19.120;2022-10-31T11:49:54;101159.47;;;12.32;100.00
71567;BME280;59403;47.456;19.120;2022-10-31T11:52:24;101161.44;;;12.30;100.00
71567;BME280;59403;47.456;19.120;2022-10-31T11:54:54;101167.38;;;12.24;100.00
71567;BME280;59403;47.456;19.120;2022-10-31T11:57:26;101163.72;;;12.25;100.00
71567;BME280;59403;47.456;19.120;2022-10-31T11:59:54;101161.06;;;12.25;100.00
71567;BME280;59403;47.456;19.120;2022-10-31T12:02:22;101161.44;;;12.30;100.00
71567;BME280;59403;47.456;19.120;2022-10-31T12:04:55;101153.19;;;12.33;100.00
71567;BME280;59403;47.456;19.120;2022-10-31T12:07:24;101166.59;;;12.32;100.00
71567;BME280;59403;47.456;19.120;2022-10-31T12:09:51;101162.13;;;12.32;100.00
71567;BME280;59403;47.456;19.120;2022-10-31T12:18:15;101165.41;;;12.26;100.00
71567;BME280;59403;47.456;19.120;2022-10-31T12:20:56;101162.28;;;12.31;100.00
71567;BME280;59403;47.456;19.120;2022-10-31T12:23:32;101156.50;;;12.35;100.00
71567;BME280;59403;47.456;19.120;2022-10-31T12:26:08;101165.87;;;12.39;100.00
71567;BME280;59403;47.456;19.120;2022-10-31T12:28:52;101166.28;;;12.17;100.00
71567;BME280;59403;47.456;19.120;2022-10-31T12:31:35;101161.47;;;12.03;100.00
71567;BME280;59403;47.456;19.120;2022-10-31T12:34:33;101161.84;;;12.08;100.00
71567;BME280;59403;47.456;19.120;2022-10-31T12:37:12;101163.63;;;12.17;100.00
71567;BME280;59403;47.456;19.120;2022-10-31T12:39:46;101159.81;;;12.20;100.00
71567;BME280;59403;47.456;19.120;2022-10-31T12:42:22;101155.66;;;12.17;100.00
71567;BME280;59403;47.456;19.120;2022-10-31T12:45:29;101157.62;;;12.15;100.00
71567;BME280;59403;47.456;19.120;2022-10-31T12:48:16;101157.56;;;12.25;100.00
71567;BME280;59403;47.456;19.120;2022-10-31T12:50:52;101151.75;;;12.21;100.00
71567;BME280;59403;47.456;19.120;2022-10-31T12:53:33;101157.06;;;12.21;100.00
71567;BME280;59403;47.456;19.120;2022-10-31T12:56:14;101154.50;;;12.20;100.00
71567;BME280;59403;47.456;19.120;2022-10-31T12:58:47;101156.00;;;12.05;100.00
71567;BME280;59403;47.456;19.120;2022-10-31T13:01:21;101151.53;;;12.05;100.00
71567;BME280;59403;47.456;19.120;2022-10-31T13:03:55;101152.22;;;12.07;100.00